Time;durP1;ratioP1;P1;durP2;ratioP2;P2;SDS_P1;SDS_P2;PMS_P1;PMS_P2;Temp;Humidity;BMP_temperature;BMP_pressure;BME280_temperature;BME280_humidity;BME280_pressure;Samples;Min_cycle;Max_cycle;Signal;HPM_P1;HPM_P2
2022/09/11 00:02:01;;;;;;;0.10;0.10;;;;;;;7.24;65.04;100433.50;5006558;28;20417;-70
2022/09/11 00:04:27;;;;;;;0.20;0.20;;;;;;;7.26;64.81;100442.28;5006613;28;20050;-71
2022/09/11 00:06:53;;;;;;;0.10;0.10;;;;;;;7.19;65.08;100436.94;5008012;28;20077;-71
2022/09/11 00:09:19;;;;;;;0.10;0.10;;;;;;;7.18;65.16;100443.47;5005412;28;20524;-71
2022/09/11 00:11:46;;;;;;;0.10;0.10;;;;;;;7.16;65.30;100437.41;5008285;28;20398;-70
2022/09/11 00:14:13;;;;;;;0.10;0.10;;;;;;;7.18;65.39;100434.47;4970675;28;20149;-71
2022/09/11 00:16:41;;;;;;;0.10;0.10;;;;;;;7.07;65.64;100423.34;5005746;28;20048;-70
2022/09/11 00:19:11;;;;;;;0.10;0.10;;;;;;;7.14;65.59;100434.09;5006993;28;20429;-72
2022/09/11 00:21:38;;;;;;;0.10;0.10;;;;;;;7.11;65.76;100440.00;4987886;28;20515;-72
2022/09/11 00:24:04;;;;;;;0.20;0.20;;;;;;;7.08;65.80;100444.03;5005495;28;20050;-71
2022/09/11 00:26:31;;;;;;;0.10;0.10;;;;;;;7.09;65.83;100440.22;4989741;28;20066;-71
2022/09/11 00:28:57;;;;;;;0.75;0.28;;;;;;;7.09;65.86;100445.69;4990066;28;20061;-71
2022/09/11 00:31:24;;;;;;;0.30;0.20;;;;;;;7.02;65.91;100425.09;4973229;28;20050;-71
2022/09/11 00:33:51;;;;;;;0.10;0.10;;;;;;;7.11;65.96;100440.00;4990208;28;20108;-71
2022/09/11 00:36:20;;;;;;;0.10;0.10;;;;;;;7.12;66.22;100443.56;4989205;28;20116;-72
2022/09/11 00:38:47;;;;;;;0.10;0.10;;;;;;;7.14;66.18;100438.72;4986583;28;20081;-71
2022/09/11 00:41:16;;;;;;;0.35;0.10;;;;;;;7.13;66.51;100435.16;4986754;28;20046;-71
2022/09/11 00:43:52;;;;;;;0.10;0.10;;;;;;;7.04;66.60;100425.72;5006040;28;20129;-71
2022/09/11 00:46:19;;;;;;;0.10;0.10;;;;;;;7.01;66.51;100426.16;4989829;28;20727;-71
2022/09/11 00:48:49;;;;;;;0.10;0.10;;;;;;;7.03;66.76;100433.03;4974084;28;20412;-72
2022/09/11 00:51:21;;;;;;;0.10;0.10;;;;;;;6.99;66.83;100431.84;4986954;28;20535;-72
2022/09/11 00:53:49;;;;;;;0.30;0.17;;;;;;;6.93;66.86;100435.50;4987069;28;20144;-72
2022/09/11 00:56:16;;;;;;;0.20;0.20;;;;;;;6.88;67.03;100430.78;5006035;28;20069;-71
2022/09/11 00:58:45;;;;;;;0.20;0.20;;;;;;;6.83;67.12;100433.38;5005417;28;20046;-71
2022/09/11 01:01:13;;;;;;;0.20;0.20;;;;;;;6.76;67.56;100438.91;4986948;28;20056;-71
2022/09/11 01:03:40;;;;;;;0.20;0.10;;;;;;;6.73;67.58;100433.94;4973753;28;20092;-71
2022/09/11 01:06:08;;;;;;;0.08;0.08;;;;;;;6.70;67.59;100439.00;5004167;28;20046;-72
2022/09/11 01:08:36;;;;;;;0.10;0.10;;;;;;;6.69;67.65;100443.63;4989083;28;20421;-73
2022/09/11 01:11:15;;;;;;;0.10;0.10;;;;;;;6.66;67.97;100439.47;5006878;28;20638;-71
2022/09/11 01:13:50;;;;;;;0.10;0.10;;;;;;;6.66;67.98;100433.22;4987150;28;20497;-71
2022/09/11 01:16:23;;;;;;;0.10;0.10;;;;;;;6.63;68.09;100436.38;4988119;28;20072;-72
2022/09/11 01:18:54;;;;;;;0.10;0.10;;;;;;;6.61;68.50;100438.53;5003844;28;20041;-72
2022/09/11 01:21:45;;;;;;;0.10;0.10;;;;;;;6.62;68.74;100448.31;4985803;28;20486;-73
2022/09/11 01:24:28;;;;;;;0.10;0.10;;;;;;;6.60;68.97;100440.41;4958755;28;20116;-72
2022/09/11 01:27:19;;;;;;;0.10;0.10;;;;;;;6.59;69.16;100436.06;4984148;28;20053;-73
2022/09/11 01:29:51;;;;;;;0.55;0.20;;;;;;;6.61;69.49;100436.66;4986883;28;20183;-73
2022/09/11 01:32:21;;;;;;;0.10;0.10;;;;;;;6.44;69.63;100420.16;4972168;28;20070;-72
2022/09/11 01:34:55;;;;;;;0.10;0.10;;;;;;;6.36;69.97;100412.38;4989736;28;20046;-71
2022/09/11 01:37:27;;;;;;;0.10;0.10;;;;;;;6.44;70.13;100427.50;4985014;28;20513;-72
2022/09/11 01:39:59;;;;;;;0.05;0.05;;;;;;;6.37;70.36;100433.84;5005932;28;20104;-71
2022/09/11 01:42:30;;;;;;;0.10;0.10;;;;;;;6.29;70.43;100417.06;4989440;28;20073;-71
2022/09/11 01:44:56;;;;;;;0.10;0.10;;;;;;;6.22;70.33;100420.69;4971459;28;20065;-72
2022/09/11 01:47:24;;;;;;;;;;;;;;;6.18;70.53;100422.22;4986484;28;20064;-72
2022/09/11 01:49:56;;;;;;;0.10;0.10;;;;;;;6.12;70.42;100420.41;5005426;28;19931;-72
2022/09/11 01:52:29;;;;;;;0.10;0.10;;;;;;;6.07;70.41;100417.56;4972778;28;20585;-71
2022/09/11 01:55:00;;;;;;;0.10;0.10;;;;;;;6.07;70.52;100412.94;4987272;28;20387;-72
2022/09/11 01:57:34;;;;;;;0.10;0.10;;;;;;;6.06;70.45;100418.63;4971192;28;20053;-72
2022/09/11 02:00:05;;;;;;;0.10;0.10;;;;;;;6.04;70.56;100418.84;4988062;28;20052;-72
2022/09/11 02:02:45;;;;;;;0.28;0.10;;;;;;;6.02;70.69;100418.25;4987529;28;20516;-73
2022/09/11 02:05:17;;;;;;;0.25;0.10;;;;;;;5.99;70.92;100410.53;4986158;28;20037;-72
2022/09/11 02:07:48;;;;;;;0.30;0.10;;;;;;;6.03;71.05;100422.63;5003567;28;20532;-72
2022/09/11 02:10:18;;;;;;;0.10;0.10;;;;;;;6.06;70.75;100413.19;4985995;28;20045;-73
2022/09/11 02:12:51;;;;;;;0.10;0.10;;;;;;;6.01;70.86;100408.44;4986736;28;20100;-73
2022/09/11 02:15:18;;;;;;;0.10;0.10;;;;;;;5.99;70.89;100415.13;4986958;28;20045;-71
2022/09/11 02:17:51;;;;;;;0.30;0.20;;;;;;;5.97;71.09;100418.09;4972076;28;20049;-71
2022/09/11 02:20:19;;;;;;;0.10;0.10;;;;;;;5.90;71.33;100404.59;4988511;28;20038;-71
2022/09/11 02:22:46;;;;;;;0.20;0.20;;;;;;;5.94;71.40;100423.97;4985579;28;20053;-72
2022/09/11 02:25:12;;;;;;;0.10;0.10;;;;;;;5.92;71.55;100424.19;4986059;28;20045;-71
2022/09/11 02:27:39;;;;;;;0.10;0.10;;;;;;;5.89;71.44;100416.53;4972504;28;20065;-72
2022/09/11 02:30:08;;;;;;;0.10;0.10;;;;;;;5.89;71.74;100424.66;4986825;28;20042;-73
2022/09/11 02:32:37;;;;;;;0.20;0.20;;;;;;;5.86;71.61;100414.28;4973086;28;20329;-73
2022/09/11 02:35:05;;;;;;;0.10;0.10;;;;;;;5.87;71.57;100420.50;4989095;28;20124;-71
2022/09/11 02:37:45;;;;;;;0.20;0.20;;;;;;;5.86;71.54;100419.69;4985945;28;20065;-72
2022/09/11 02:40:30;;;;;;;0.10;0.10;;;;;;;5.86;71.55;100416.97;4969019;28;20052;-72
2022/09/11 02:43:19;;;;;;;0.20;0.10;;;;;;;5.84;71.71;100410.94;4986828;28;20420;-72
2022/09/11 02:45:56;;;;;;;0.20;0.20;;;;;;;5.81;71.53;100406.81;4989142;28;20050;-73
2022/09/11 02:48:37;;;;;;;0.10;0.10;;;;;;;5.82;71.50;100413.88;5002694;28;20145;-73
2022/09/11 02:51:14;;;;;;;0.13;0.13;;;;;;;5.84;71.60;100416.34;4979247;28;20416;-73
2022/09/11 02:53:48;;;;;;;0.20;0.20;;;;;;;5.82;71.62;100415.75;4969605;28;20053;-73
2022/09/11 02:56:21;;;;;;;0.10;0.10;;;;;;;5.80;71.66;100415.16;4953024;28;20054;-72
2022/09/11 02:58:54;;;;;;;0.10;0.10;;;;;;;5.79;71.86;100411.63;4953894;28;20468;-73
2022/09/11 03:01:22;;;;;;;0.10;0.10;;;;;;;5.78;71.76;100407.25;4974331;28;20049;-72
2022/09/11 03:03:49;;;;;;;0.10;0.10;;;;;;;5.79;71.83;100408.91;5004476;28;20501;-71
2022/09/11 03:06:18;;;;;;;0.20;0.20;;;;;;;5.79;71.67;100408.09;4986578;28;20050;-72
2022/09/11 03:08:45;;;;;;;0.25;0.15;;;;;;;5.78;71.70;100409.97;4969298;28;20049;-73
2022/09/11 03:11:14;;;;;;;0.10;0.10;;;;;;;5.79;71.78;100408.09;4984734;28;20042;-73
2022/09/11 03:13:44;;;;;;;0.10;0.10;;;;;;;5.79;71.85;100398.06;5001466;28;20065;-73
2022/09/11 03:16:12;;;;;;;0.10;0.10;;;;;;;5.78;71.74;100401.00;4970201;28;20406;-72
2022/09/11 03:18:39;;;;;;;0.20;0.15;;;;;;;5.81;71.54;100398.66;4986345;28;20096;-72
2022/09/11 03:21:09;;;;;;;0.73;0.20;;;;;;;5.84;71.60;100393.84;4985809;28;20045;-71
2022/09/11 03:23:36;;;;;;;0.10;0.10;;;;;;;5.88;71.49;100397.72;4969516;28;20054;-72
2022/09/11 03:26:03;;;;;;;0.20;0.20;;;;;;;5.80;71.29;100379.88;4984993;28;20424;-71
2022/09/11 03:28:30;;;;;;;0.10;0.10;;;;;;;5.97;71.15;100396.38;5003795;28;20472;-71
2022/09/11 03:30:57;;;;;;;0.57;0.10;;;;;;;6.03;70.97;100400.09;4970653;28;20054;-71
2022/09/11 03:33:24;;;;;;;0.10;0.10;;;;;;;6.07;70.71;100387.72;4989147;28;20058;-71
2022/09/11 03:35:53;;;;;;;0.10;0.10;;;;;;;6.02;70.67;100385.69;4969321;28;20503;-71
2022/09/11 03:38:19;;;;;;;0.10;0.10;;;;;;;6.09;70.63;100391.84;4987201;28;20080;-72
2022/09/11 03:40:46;;;;;;;0.10;0.10;;;;;;;6.13;70.45;100394.09;5004637;28;20058;-72
2022/09/11 03:43:12;;;;;;;0.10;0.10;;;;;;;6.16;70.30;100382.78;4985347;28;20053;-73
2022/09/11 03:45:38;;;;;;;0.43;0.20;;;;;;;6.19;69.93;100390.44;4986369;28;20153;-72
2022/09/11 03:48:05;;;;;;;0.10;0.10;;;;;;;6.22;69.66;100387.28;4986981;28;20402;-72
2022/09/11 03:50:31;;;;;;;0.10;0.10;;;;;;;6.23;69.61;100392.47;4972253;28;20046;-73
2022/09/11 03:52:59;;;;;;;0.17;0.17;;;;;;;6.26;69.44;100384.94;5007561;28;20050;-72
2022/09/11 03:55:27;;;;;;;0.10;0.10;;;;;;;6.31;69.39;100385.91;4975674;28;20528;-71
2022/09/11 03:57:53;;;;;;;0.20;0.20;;;;;;;6.30;69.15;100377.97;4955272;28;20084;-71
2022/09/11 04:00:19;;;;;;;0.10;0.10;;;;;;;6.41;69.13;100387.22;4989542;28;20111;-72
2022/09/11 04:02:54;;;;;;;0.15;0.15;;;;;;;6.46;68.98;100387.34;4988584;28;20053;-70
2022/09/11 04:05:37;;;;;;;0.10;0.10;;;;;;;6.52;68.64;100387.25;4987752;28;20145;-71
2022/09/11 04:08:05;;;;;;;0.17;0.17;;;;;;;6.54;68.48;100381.56;4988297;28;20056;-71
2022/09/11 04:10:33;;;;;;;0.10;0.10;;;;;;;6.60;68.20;100388.78;4974217;28;20166;-72
2022/09/11 04:13:00;;;;;;;;;;;;;;;6.70;68.20;100385.50;4974392;28;20042;-73
2022/09/11 04:15:27;;;;;;;0.10;0.10;;;;;;;6.79;67.64;100392.25;4987989;28;19961;-73
2022/09/11 04:17:54;;;;;;;0.20;0.20;;;;;;;6.89;67.30;100388.94;4987814;28;21226;-73
2022/09/11 04:20:22;;;;;;;0.20;0.20;;;;;;;6.99;67.39;100395.66;4988519;28;20050;-72
2022/09/11 04:22:48;;;;;;;0.10;0.10;;;;;;;7.07;66.83;100395.31;4991065;28;20081;-73
2022/09/11 04:25:16;;;;;;;0.40;0.30;;;;;;;7.11;66.54;100377.47;4989732;28;20497;-72
2022/09/11 04:27:42;;;;;;;0.10;0.10;;;;;;;7.19;66.13;100389.88;4988137;28;20073;-72
2022/09/11 04:30:13;;;;;;;0.20;0.20;;;;;;;7.32;65.95;100386.91;4988516;28;20112;-74
2022/09/11 04:32:39;;;;;;;0.30;0.20;;;;;;;7.42;65.63;100386.28;5005069;28;20145;-72
2022/09/11 04:35:06;;;;;;;0.20;0.20;;;;;;;7.52;65.66;100388.41;5006677;28;20096;-73
2022/09/11 04:37:37;;;;;;;0.10;0.10;;;;;;;7.62;65.10;100385.91;4988997;28;20050;-73
2022/09/11 04:40:04;;;;;;;0.10;0.10;;;;;;;7.74;64.79;100390.50;4988152;28;20074;-73
2022/09/11 04:42:32;;;;;;;0.20;0.20;;;;;;;7.82;64.42;100383.84;5004698;28;20466;-73
2022/09/11 04:44:58;;;;;;;0.10;0.10;;;;;;;7.90;64.24;100387.00;4988597;28;20049;-73
2022/09/11 04:47:24;;;;;;;0.20;0.20;;;;;;;7.98;63.95;100382.22;4989043;28;20061;-73
2022/09/11 04:49:51;;;;;;;0.20;0.20;;;;;;;8.02;63.97;100386.09;5008046;28;20592;-73
2022/09/11 04:52:17;;;;;;;0.47;0.30;;;;;;;8.06;63.77;100384.56;4986897;28;20056;-72
2022/09/11 04:54:45;;;;;;;0.22;0.22;;;;;;;8.10;63.82;100383.00;4970104;28;20409;-72
2022/09/11 04:57:11;;;;;;;0.30;0.30;;;;;;;8.16;63.67;100383.94;4971011;28;20472;-73
2022/09/11 04:59:40;;;;;;;0.20;0.20;;;;;;;8.22;63.50;100381.06;4987057;28;20045;-73
2022/09/11 05:02:11;;;;;;;0.10;0.10;;;;;;;8.31;63.23;100386.94;4987407;28;20533;-72
2022/09/11 05:04:40;;;;;;;1.13;0.20;;;;;;;8.37;63.09;100385.94;4971815;28;20053;-73
2022/09/11 05:07:07;;;;;;;0.10;0.10;;;;;;;8.42;62.94;100381.63;4988350;28;20575;-71
2022/09/11 05:09:34;;;;;;;0.32;0.20;;;;;;;8.48;62.83;100378.75;4954498;28;20509;-71
2022/09/11 05:12:02;;;;;;;0.13;0.10;;;;;;;8.59;62.66;100381.69;4988908;28;20501;-71
2022/09/11 05:14:31;;;;;;;0.22;0.20;;;;;;;8.64;62.40;100379.03;4988845;28;20120;-71
2022/09/11 05:17:00;;;;;;;0.17;0.17;;;;;;;8.76;62.12;100384.44;4989039;28;20462;-72
2022/09/11 05:19:28;;;;;;;0.38;0.20;;;;;;;8.88;61.79;100385.16;4986342;28;20484;-70
2022/09/11 05:21:54;;;;;;;0.10;0.10;;;;;;;8.93;60.50;100373.50;4987807;28;20080;-71
2022/09/11 05:24:21;;;;;;;0.20;0.20;;;;;;;9.04;60.32;100378.03;4967748;28;20495;-71
2022/09/11 05:26:48;;;;;;;0.28;0.20;;;;;;;9.19;59.92;100385.59;4970826;28;20042;-72
2022/09/11 05:29:15;;;;;;;0.40;0.20;;;;;;;9.34;59.03;100375.97;5003388;28;20105;-71
2022/09/11 05:31:51;;;;;;;0.47;0.20;;;;;;;9.47;58.34;100372.06;4973171;28;20046;-72
2022/09/11 05:34:21;;;;;;;1.10;0.38;;;;;;;9.61;57.35;100369.78;4987141;28;20046;-73
2022/09/11 05:36:48;;;;;;;0.15;0.15;;;;;;;9.80;56.96;100375.75;4988231;28;20513;-71
2022/09/11 05:39:14;;;;;;;0.20;0.20;;;;;;;9.91;56.08;100371.22;5003383;28;20497;-72
2022/09/11 05:41:40;;;;;;;0.30;0.30;;;;;;;10.10;55.76;100377.16;4986977;28;20064;-72
2022/09/11 05:44:07;;;;;;;0.20;0.20;;;;;;;10.37;54.98;100381.78;4987304;28;20125;-72
2022/09/11 05:46:36;;;;;;;0.20;0.20;;;;;;;10.60;53.97;100375.16;4985371;28;20046;-71
2022/09/11 05:49:03;;;;;;;0.20;0.20;;;;;;;10.83;53.65;100378.63;4969602;28;20097;-73
2022/09/11 05:51:34;;;;;;;0.20;0.20;;;;;;;11.11;52.92;100381.28;4972023;28;20049;-72
2022/09/11 05:54:01;;;;;;;0.25;0.25;;;;;;;11.32;52.01;100380.31;4987517;28;20081;-72
2022/09/11 05:56:27;;;;;;;0.20;0.20;;;;;;;11.59;51.50;100370.31;4955237;28;20042;-71
2022/09/11 05:58:57;;;;;;;0.30;0.30;;;;;;;11.69;50.84;100364.84;4966679;28;20050;-73
2022/09/11 06:01:29;;;;;;;0.20;0.20;;;;;;;11.84;50.80;100364.09;4984780;28;20133;-72
2022/09/11 06:04:08;;;;;;;0.20;0.20;;;;;;;12.11;49.78;100362.25;4986719;28;20054;-74
2022/09/11 06:06:36;;;;;;;0.10;0.10;;;;;;;12.27;49.49;100361.19;5004486;28;20195;-73
2022/09/11 06:09:03;;;;;;;0.20;0.20;;;;;;;12.34;48.84;100364.50;4985901;28;20061;-73
2022/09/11 06:11:29;;;;;;;0.20;0.20;;;;;;;12.23;49.13;100356.50;5005148;28;20104;-74
2022/09/11 06:13:56;;;;;;;0.20;0.20;;;;;;;12.15;49.34;100360.63;5004956;28;20054;-74
2022/09/11 06:16:24;;;;;;;0.20;0.20;;;;;;;12.20;49.50;100358.72;4987437;28;20063;-74
2022/09/11 06:18:53;;;;;;;0.20;0.20;;;;;;;12.36;48.86;100366.16;4990627;28;20042;-72
2022/09/11 06:21:22;;;;;;;0.30;0.30;;;;;;;12.44;49.06;100360.09;4975261;28;20542;-72
2022/09/11 06:23:59;;;;;;;0.30;0.25;;;;;;;12.61;48.76;100360.66;4977311;28;20041;-71
2022/09/11 06:26:28;;;;;;;0.20;0.20;;;;;;;12.74;48.04;100356.53;4992177;28;20045;-73
2022/09/11 06:28:55;;;;;;;0.20;0.20;;;;;;;12.90;48.22;100357.34;4968742;28;20096;-72
2022/09/11 06:31:25;;;;;;;0.25;0.25;;;;;;;13.13;47.85;100357.00;4991771;28;20054;-73
2022/09/11 06:33:53;;;;;;;0.20;0.20;;;;;;;13.31;47.04;100356.41;4977890;28;20231;-73
2022/09/11 06:36:21;;;;;;;0.20;0.20;;;;;;;13.35;46.92;100353.94;4977941;28;20060;-74
2022/09/11 06:38:52;;;;;;;0.30;0.30;;;;;;;13.31;46.83;100359.16;4645974;28;10000072;-73
2022/09/11 06:41:21;;;;;;;0.20;0.20;;;;;;;13.31;46.96;100348.16;4967775;28;20073;-73
2022/09/11 06:43:48;;;;;;;0.30;0.30;;;;;;;13.55;46.45;100342.09;4954975;28;20042;-73
2022/09/11 06:46:15;;;;;;;0.43;0.30;;;;;;;13.77;46.34;100346.38;4972135;28;20444;-73
2022/09/11 06:48:42;;;;;;;;;;;;;;;14.09;45.91;100350.56;5007806;28;20042;-73
2022/09/11 06:51:10;;;;;;;0.20;0.20;;;;;;;14.24;45.61;100352.41;4986875;28;20020;-73
2022/09/11 06:53:37;;;;;;;0.30;0.25;;;;;;;14.36;45.08;100354.78;4965365;28;20048;-73
2022/09/11 06:56:11;;;;;;;0.20;0.20;;;;;;;14.39;45.09;100351.47;4997112;28;20068;-72
2022/09/11 06:58:40;;;;;;;0.20;0.20;;;;;;;14.31;45.22;100341.88;4994402;28;20057;-74
2022/09/11 07:01:12;;;;;;;0.47;0.40;;;;;;;14.26;44.47;100336.44;4985350;28;20505;-73
2022/09/11 07:03:43;;;;;;;0.55;0.30;;;;;;;14.39;44.58;100340.47;4958073;28;20026;-73
2022/09/11 07:06:14;;;;;;;0.28;0.28;;;;;;;14.52;44.41;100332.66;4973516;28;20084;-73
2022/09/11 07:08:43;;;;;;;0.20;0.20;;;;;;;14.57;43.65;100338.09;4981632;28;20045;-71
2022/09/11 07:11:11;;;;;;;;;;;;;;;14.63;43.98;100336.97;5008956;28;20128;-71
2022/09/11 07:13:38;;;;;;;0.30;0.30;;;;;;;14.83;43.58;100327.72;5007431;28;19932;-73
2022/09/11 07:16:08;;;;;;;0.30;0.30;;;;;;;15.09;42.98;100335.72;4971951;28;20065;-72
2022/09/11 07:18:39;;;;;;;0.40;0.40;;;;;;;15.33;42.82;100340.41;4983782;28;20054;-73
2022/09/11 07:21:11;;;;;;;0.85;0.40;;;;;;;15.65;42.41;100336.16;4988541;28;20042;-73
2022/09/11 07:23:39;;;;;;;0.30;0.30;;;;;;;16.00;41.47;100322.16;4987467;28;20045;-72
2022/09/11 07:26:06;;;;;;;;;;;;;;;16.12;41.19;100319.78;5008299;28;20037;-71
2022/09/11 07:28:34;;;;;;;0.30;0.30;;;;;;;15.84;41.28;100316.88;4978480;28;19939;-73
2022/09/11 07:31:09;;;;;;;0.30;0.30;;;;;;;15.70;40.35;100308.50;5011875;28;20045;-72
2022/09/11 07:33:37;;;;;;;0.40;0.30;;;;;;;15.52;40.51;100296.34;4988033;28;20512;-71
2022/09/11 07:36:10;;;;;;;0.35;0.35;;;;;;;15.60;40.70;100325.19;4972559;28;20115;-73
2022/09/11 07:38:41;;;;;;;0.30;0.30;;;;;;;15.64;40.18;100315.22;4973005;28;20298;-73
2022/09/11 07:41:10;;;;;;;0.20;0.20;;;;;;;15.76;40.14;100308.44;4979069;28;20046;-74
2022/09/11 07:43:38;;;;;;;0.40;0.40;;;;;;;15.76;39.75;100298.22;4998784;28;20078;-73
2022/09/11 07:46:08;;;;;;;0.30;0.30;;;;;;;16.05;38.87;100301.97;4974579;28;20068;-72
2022/09/11 07:48:35;;;;;;;0.30;0.30;;;;;;;16.26;38.97;100299.72;4997427;28;20042;-72
2022/09/11 07:51:03;;;;;;;0.30;0.30;;;;;;;16.82;38.30;100302.63;4996865;28;20147;-73
2022/09/11 07:53:33;;;;;;;0.20;0.20;;;;;;;17.08;37.05;100291.09;4979737;28;20418;-73
2022/09/11 07:56:02;;;;;;;0.30;0.30;;;;;;;16.48;37.39;100290.78;4989505;28;20491;-73
2022/09/11 07:58:32;;;;;;;0.30;0.30;;;;;;;16.26;38.50;100286.75;4996673;28;20037;-73
2022/09/11 08:00:58;;;;;;;0.30;0.30;;;;;;;16.21;38.49;100292.34;5011627;28;20045;-74
2022/09/11 08:03:26;;;;;;;0.30;0.30;;;;;;;16.18;38.52;100281.91;4990792;28;20115;-72
2022/09/11 08:05:56;;;;;;;0.40;0.40;;;;;;;16.02;38.45;100284.09;5014550;28;20104;-73
2022/09/11 08:08:22;;;;;;;0.30;0.30;;;;;;;16.09;38.80;100280.97;5008760;28;20060;-72
2022/09/11 08:10:48;;;;;;;0.30;0.30;;;;;;;16.29;38.41;100280.63;5014667;28;20442;-73
2022/09/11 08:13:15;;;;;;;0.38;0.30;;;;;;;16.62;37.84;100282.53;5015064;28;20104;-73
2022/09/11 08:15:46;;;;;;;0.40;0.40;;;;;;;16.92;36.91;100276.75;4992409;28;20547;-72
2022/09/11 08:18:13;;;;;;;0.30;0.30;;;;;;;17.01;36.12;100275.75;4983744;28;20100;-72
2022/09/11 08:20:41;;;;;;;;;;;;;;;17.18;35.83;100276.28;4979113;28;20445;-72
2022/09/11 08:23:08;;;;;;;0.40;0.40;;;;;;;17.62;35.19;100268.44;4996182;28;19979;-71
2022/09/11 08:25:35;;;;;;;0.40;0.40;;;;;;;17.92;34.59;100260.56;4999712;28;20045;-71
2022/09/11 08:28:03;;;;;;;0.43;0.43;;;;;;;18.18;34.22;100271.00;4994882;28;20347;-71
2022/09/11 08:30:31;;;;;;;0.30;0.30;;;;;;;17.96;34.04;100256.00;4971899;28;20390;-73
2022/09/11 08:32:58;;;;;;;0.55;0.50;;;;;;;17.72;35.02;100270.97;4996547;28;20073;-73
2022/09/11 08:35:25;;;;;;;0.40;0.40;;;;;;;17.72;34.94;100266.25;4980567;28;20056;-73
2022/09/11 08:37:53;;;;;;;0.40;0.40;;;;;;;17.49;35.39;100259.84;4971835;28;20046;-73
2022/09/11 08:40:20;;;;;;;0.30;0.30;;;;;;;17.37;35.23;100256.78;4963150;28;20473;-74
2022/09/11 08:42:46;;;;;;;0.40;0.40;;;;;;;17.43;35.42;100250.03;5013235;28;20050;-75
2022/09/11 08:45:17;;;;;;;0.40;0.40;;;;;;;17.51;35.01;100240.19;4989108;28;20082;-73
2022/09/11 08:47:49;;;;;;;0.40;0.40;;;;;;;17.62;34.83;100252.63;4971585;28;20430;-73
2022/09/11 08:50:22;;;;;;;0.40;0.40;;;;;;;17.95;34.35;100248.84;4974121;28;20049;-73
2022/09/11 08:52:49;;;;;;;0.40;0.40;;;;;;;18.23;33.73;100262.59;4947944;28;20046;-73
2022/09/11 08:55:38;;;;;;;0.40;0.40;;;;;;;18.34;33.33;100252.06;4998158;28;20115;-74
2022/09/11 08:58:15;;;;;;;0.40;0.40;;;;;;;18.57;32.82;100250.09;4971374;28;20158;-74
2022/09/11 09:00:48;;;;;;;0.40;0.40;;;;;;;18.10;33.10;100217.25;4970455;28;20037;-73
2022/09/11 09:03:40;;;;;;;0.50;0.50;;;;;;;18.25;33.02;100249.25;4974543;28;20428;-74
2022/09/11 09:06:23;;;;;;;0.40;0.40;;;;;;;18.21;33.24;100240.75;4985464;28;20476;-73
2022/09/11 09:09:02;;;;;;;0.50;0.50;;;;;;;18.49;33.18;100248.06;4987542;28;20049;-74
2022/09/11 09:11:37;;;;;;;0.50;0.50;;;;;;;18.90;32.32;100249.72;5006055;28;20038;-74
2022/09/11 09:14:25;;;;;;;0.50;0.50;;;;;;;19.06;31.63;100249.31;4985859;28;20421;-73
2022/09/11 09:16:58;;;;;;;0.55;0.55;;;;;;;19.35;31.49;100242.38;4968016;28;20528;-73
2022/09/11 09:19:28;;;;;;;0.50;0.50;;;;;;;19.75;30.87;100238.66;4988146;28;20144;-73
2022/09/11 09:22:08;;;;;;;0.60;0.60;;;;;;;20.23;29.60;100242.41;4986701;28;20425;-74
2022/09/11 09:24:42;;;;;;;0.50;0.50;;;;;;;20.54;29.46;100244.13;4966647;28;20038;-74
2022/09/11 09:27:16;;;;;;;0.75;0.70;;;;;;;20.85;28.28;100234.72;4972388;28;20049;-73
2022/09/11 09:29:46;;;;;;;0.70;0.70;;;;;;;21.07;27.56;100241.97;4969889;28;20077;-74
2022/09/11 09:32:20;;;;;;;0.60;0.60;;;;;;;20.71;27.97;100220.22;4988865;28;20155;-73
2022/09/11 09:34:51;;;;;;;0.70;0.70;;;;;;;21.14;27.48;100237.84;4986569;28;20065;-74
2022/09/11 09:37:21;;;;;;;0.70;0.70;;;;;;;21.34;27.25;100230.69;4970139;28;20050;-74
2022/09/11 09:39:47;;;;;;;0.70;0.70;;;;;;;20.98;27.32;100224.50;4952593;28;20060;-73
2022/09/11 09:43:10;;;;;;;0.68;0.68;;;;;;;21.07;27.67;100214.19;4984136;28;20053;-73
2022/09/11 09:45:47;;;;;;;0.70;0.70;;;;;;;21.43;27.36;100234.19;4964014;28;20108;-74
2022/09/11 09:48:14;;;;;;;0.70;0.70;;;;;;;21.92;26.44;100235.63;4986090;28;20057;-74
2022/09/11 09:50:43;;;;;;;0.70;0.70;;;;;;;21.86;26.40;100237.00;5004246;28;20053;-74
2022/09/11 09:53:16;;;;;;;0.70;0.70;;;;;;;21.49;26.76;100232.88;5003784;28;20041;-73
2022/09/11 09:55:43;;;;;;;0.73;0.73;;;;;;;21.54;26.91;100231.81;5009026;28;20045;-74
2022/09/11 09:58:11;;;;;;;0.70;0.70;;;;;;;21.68;26.15;100232.41;5003269;28;20052;-74
2022/09/11 10:00:39;;;;;;;0.70;0.70;;;;;;;21.28;27.09;100252.31;4986811;28;20088;-75
2022/09/11 10:03:20;;;;;;;0.70;0.70;;;;;;;21.40;26.63;100232.09;4988119;28;20076;-74
2022/09/11 10:05:49;;;;;;;0.70;0.70;;;;;;;21.95;26.38;100232.19;4988086;28;20042;-75
2022/09/11 10:08:26;;;;;;;0.60;0.60;;;;;;;21.77;26.36;100234.31;5002880;28;20071;-73
2022/09/11 10:10:57;;;;;;;0.50;0.50;;;;;;;20.93;27.35;100233.84;5014251;28;20060;-74
2022/09/11 10:13:27;;;;;;;0.40;0.40;;;;;;;19.95;28.70;100232.47;5019716;28;20092;-73
2022/09/11 10:15:58;;;;;;;0.40;0.40;;;;;;;19.49;29.34;100236.69;4985434;28;20058;-73
2022/09/11 10:18:36;;;;;;;0.40;0.40;;;;;;;18.90;29.72;100249.72;4996090;28;20145;-73
2022/09/11 10:21:21;;;;;;;0.40;0.40;;;;;;;18.32;30.99;100235.78;4993142;28;20112;-74
2022/09/11 10:23:51;;;;;;;1.52;0.40;;;;;;;18.10;31.50;100228.31;4988403;28;20048;-74
2022/09/11 10:26:23;;;;;;;0.40;0.40;;;;;;;18.09;31.95;100230.28;4983519;28;20128;-73
2022/09/11 10:28:53;;;;;;;0.40;0.40;;;;;;;18.05;32.03;100236.75;5012738;28;20748;-73
2022/09/11 10:31:21;;;;;;;0.40;0.40;;;;;;;18.05;32.41;100233.97;5010763;28;20046;-74
2022/09/11 10:33:51;;;;;;;0.40;0.40;;;;;;;18.22;32.11;100234.09;4977893;28;20037;-73
2022/09/11 10:36:22;;;;;;;0.40;0.40;;;;;;;18.24;32.26;100234.59;4992806;28;20066;-74
2022/09/11 10:38:49;;;;;;;0.40;0.40;;;;;;;18.17;31.64;100236.16;5007279;28;20115;-73
2022/09/11 10:41:18;;;;;;;0.30;0.30;;;;;;;17.92;31.87;100230.91;4672986;28;10001055;-74
2022/09/11 10:43:49;;;;;;;0.40;0.40;;;;;;;17.74;32.63;100227.22;4608411;28;9999734;-73
2022/09/11 10:46:27;;;;;;;0.35;0.35;;;;;;;17.61;32.28;100217.81;4992088;28;20598;-73
2022/09/11 10:48:56;;;;;;;0.47;0.40;;;;;;;17.58;32.78;100230.34;5005981;28;20113;-74
2022/09/11 10:51:24;;;;;;;0.40;0.40;;;;;;;17.35;33.01;100223.97;5001182;28;20099;-73
2022/09/11 10:54:06;;;;;;;0.40;0.40;;;;;;;17.24;33.18;100206.75;4957907;28;20042;-74
2022/09/11 10:56:39;;;;;;;0.30;0.30;;;;;;;17.40;33.27;100217.47;5001379;28;20057;-72
2022/09/11 10:59:16;;;;;;;0.40;0.40;;;;;;;17.43;32.97;100208.59;4989357;28;20046;-72
2022/09/11 11:01:43;;;;;;;0.40;0.40;;;;;;;17.27;33.35;100205.34;4990212;28;20421;-74
2022/09/11 11:04:11;;;;;;;0.40;0.40;;;;;;;17.28;33.53;100212.50;5002210;28;20069;-75
2022/09/11 11:06:52;;;;;;;0.40;0.40;;;;;;;17.29;33.37;100203.06;5000890;28;20045;-74
2022/09/11 11:09:39;;;;;;;0.40;0.40;;;;;;;17.18;33.67;100202.50;4992748;28;20041;-73
2022/09/11 11:12:26;;;;;;;0.40;0.40;;;;;;;17.06;33.64;100208.56;4989243;28;20451;-74
2022/09/11 11:15:15;;;;;;;0.40;0.40;;;;;;;17.07;33.94;100207.41;4987775;28;20469;-72
2022/09/11 11:17:54;;;;;;;0.40;0.40;;;;;;;17.23;33.88;100199.59;5001743;28;20401;-74
2022/09/11 11:20:30;;;;;;;0.40;0.40;;;;;;;17.21;33.79;100193.56;5002829;28;20046;-74
2022/09/11 11:23:32;;;;;;;0.40;0.40;;;;;;;17.37;34.09;100198.75;4985436;28;20088;-74
2022/09/11 11:26:13;;;;;;;0.32;0.32;;;;;;;17.60;33.74;100194.06;4981183;28;20111;-73
2022/09/11 11:28:54;;;;;;;0.40;0.40;;;;;;;17.66;33.27;100190.09;4982296;28;20057;-74
2022/09/11 11:31:35;;;;;;;0.43;0.43;;;;;;;17.80;33.47;100200.28;4981096;28;20050;-74
2022/09/11 11:34:26;;;;;;;0.40;0.40;;;;;;;17.84;33.25;100198.50;4977689;28;20500;-73
2022/09/11 11:36:59;;;;;;;0.47;0.47;;;;;;;17.82;33.21;100192.47;4977632;28;20091;-74
2022/09/11 11:39:31;;;;;;;0.40;0.40;;;;;;;17.66;33.71;100192.84;5007373;28;20057;-74
2022/09/11 11:42:06;;;;;;;0.50;0.50;;;;;;;17.76;33.42;100179.88;4981257;28;20556;-74
2022/09/11 11:44:38;;;;;;;0.50;0.50;;;;;;;17.91;32.97;100192.53;5002556;28;20065;-73
2022/09/11 11:47:09;;;;;;;0.50;0.50;;;;;;;17.96;33.17;100175.81;5007539;28;20042;-74